Startpagina
METAR-TAF:

METAR-TAF

Vliegvelden :

Flughafen Paderborn Lippstadt

Paderborn-Lippstadt, Duitsland

breedte: 51-37N, lengte: 008-37E, hoogte: 213 m

Actueel weer

Dit bericht is 20 minuten geleden gemaakt, om 15:20 UTC
Wind 6 kt uit het westnoordwesten, variërend tussen het westzuidwesten en het noorden
Temperatuur 23°C
Vochtigheid 50%
Druk 1021 hPa
Zicht 10 km of meer
Verspreide wolken op 4900 ft

METAR: EDLP 211520Z 30006KT 250V360 9999 SCT049 23/12 Q1021

Tijdstip: 17:40 (15:40 UTC)

Verwachting

Dit bericht is 4 uur en het 40 minuten geleden gemaakt, om 11:00 UTC
Verwachting geldig van 21 om 12 UTC tot 22 om 12 UTC
Wind 8 kt uit het westen
Zicht 10 km of meer
geen wolken onder 1500 m en geen cumulonimbus
Wijzigt naar
van 21 om 17 UTC tot 21 om 19 UTC
Wind 3 kt uit variabele richting
Wijzigt naar
van 22 om 02 UTC tot 22 om 05 UTC
Wind 7 kt uit het westzuidwesten

TAF: EDLP 211100Z 2112/2212 28008KT CAVOK BECMG 2117/2119 VRB03KT BECMG 2202/2205 24007KT

Waarnemingen en weersverwachtingen van meer dan 4000 vliegvelden (METAR en TAF).

De beschikbare stations zijn de gele en rode punten op de kaart.

Ga met uw muis naar het station om de naam te zien.

Klik dan om waarnemingen en weersverwachtingen te zien.

kaart wijzigen: klik op de groene knoppen met een zwart kruis om in te zoomen, op de groene knop met een streepje om uit te zoomen of op de groene pijlen voor aangrenzende kaarten.


METAR-TAF: